Time;durP1;ratioP1;P1;durP2;ratioP2;P2;SDS_P1;SDS_P2;PMS_P1;PMS_P2;Temp;Humidity;BMP_temperature;BMP_pressure;BME280_temperature;BME280_humidity;BME280_pressure;Samples;Min_cycle;Max_cycle;Signal;HPM_P1;HPM_P2
2022/11/06 00:01:35;;;;;;;;;;;;;;;7.09;78.18;98732.56;7392314;19;19921;-78
2022/11/06 00:04:05;;;;;;;;;;;;;;;7.15;78.24;98729.41;7391433;19;20016;-78
2022/11/06 00:06:49;;;;;;;;;;;;;;;7.18;77.87;98724.72;7394653;19;19949;-77
2022/11/06 00:09:19;;;;;;;;;;;;;;;7.23;77.68;98724.34;7394261;19;19943;-78
2022/11/06 00:11:46;;;;;;;;;;;;;;;7.11;77.42;98722.72;7392643;19;20030;-79
2022/11/06 00:14:13;;;;;;;;;;;;;;;7.21;77.49;98719.22;7382945;19;20349;-78
2022/11/06 00:16:40;;;;;;;;;;;;;;;7.23;77.86;98716.47;7388458;19;19923;-79
2022/11/06 00:19:07;;;;;;;;;;;;;;;7.17;77.74;98707.28;7395631;19;20528;-77
2022/11/06 00:21:35;;;;;;;;;;;;;;;7.17;77.68;98698.56;7392656;19;19907;-77
2022/11/06 00:24:03;;;;;;;;;;;;;;;7.11;77.50;98699.91;7391912;19;19914;-79
2022/11/06 00:26:30;;;;;;;;;;;;;;;7.13;77.39;98703.22;7391996;19;19929;-77
2022/11/06 00:28:57;;;;;;;;;;;;;;;7.01;77.69;98710.31;7390681;19;20339;-76
2022/11/06 00:31:24;;;;;;;;;;;;;;;7.02;77.76;98711.16;7390984;19;19922;-78
2022/11/06 00:33:51;;;;;;;;;;;;;;;7.10;77.21;98710.53;7393813;19;19914;-77
2022/11/06 00:36:20;;;;;;;;;;;;;;;7.09;77.20;98719.41;7394706;19;19940;-79
2022/11/06 00:38:46;;;;;;;;;;;;;;;7.05;77.16;98724.06;7390910;19;19974;-78
2022/11/06 00:41:14;;;;;;;;;;;;;;;7.00;77.38;98729.72;7391035;19;19918;-79
2022/11/06 00:43:41;;;;;;;;;;;;;;;7.00;77.51;98727.09;7391049;19;20359;-78
2022/11/06 00:46:10;;;;;;;;;;;;;;;6.95;77.40;98725.75;7390973;19;19949;-78
2022/11/06 00:48:37;;;;;;;;;;;;;;;6.80;77.61;98718.16;7390152;19;19915;-77
2022/11/06 00:51:04;;;;;;;;;;;;;;;6.67;77.71;98725.34;7389756;19;19947;-78
2022/11/06 00:53:31;;;;;;;;;;;;;;;6.88;75.81;98727.22;7383521;19;19926;-78
2022/11/06 00:56:08;;;;;;;;;;;;;;;6.93;75.24;98727.69;7390608;19;19915;-77
2022/11/06 00:58:35;;;;;;;;;;;;;;;6.97;74.78;98727.31;7393993;19;19914;-79
2022/11/06 01:01:08;;;;;;;;;;;;;;;6.77;75.31;98726.31;7390151;19;19911;-79
2022/11/06 01:03:35;;;;;;;;;;;;;;;6.73;75.69;98724.84;7388018;19;20268;-78
2022/11/06 01:06:05;;;;;;;;;;;;;;;6.65;75.95;98729.06;7390987;19;19919;-79
2022/11/06 01:08:32;;;;;;;;;;;;;;;6.59;76.16;98728.59;7392268;19;19917;-79
2022/11/06 01:11:04;;;;;;;;;;;;;;;6.30;76.93;98730.06;7390519;19;19918;-77
2022/11/06 01:13:31;;;;;;;;;;;;;;;6.25;77.43;98729.59;7390579;19;20468;-78
2022/11/06 01:15:57;;;;;;;;;;;;;;;6.20;78.13;98723.84;7391291;19;19938;-78
2022/11/06 01:18:24;;;;;;;;;;;;;;;6.25;78.03;98719.91;7386235;19;19911;-78
2022/11/06 01:20:50;;;;;;;;;;;;;;;6.24;78.33;98727.91;7391453;19;19947;-78
2022/11/06 01:23:17;;;;;;;;;;;;;;;6.25;78.38;98730.41;7392224;19;19939;-78
2022/11/06 01:25:44;;;;;;;;;;;;;;;6.19;78.61;98730.03;7389948;19;19945;-79
2022/11/06 01:28:10;;;;;;;;;;;;;;;6.17;78.82;98724.09;7389889;19;19926;-78
2022/11/06 01:30:37;;;;;;;;;;;;;;;6.23;78.78;98713.09;7389091;19;19919;-78
2022/11/06 01:33:04;;;;;;;;;;;;;;;6.22;78.44;98712.28;7387033;19;19939;-77
2022/11/06 01:35:30;;;;;;;;;;;;;;;6.08;78.99;98723.84;7382968;19;19923;-78
2022/11/06 01:37:57;;;;;;;;;;;;;;;6.14;79.04;98723.38;7390737;19;19947;-78
2022/11/06 01:40:23;;;;;;;;;;;;;;;6.31;78.61;98723.84;7393449;19;19918;-78
2022/11/06 01:42:50;;;;;;;;;;;;;;;6.38;77.79;98727.66;7393382;19;19919;-78
2022/11/06 01:45:25;;;;;;;;;;;;;;;6.54;77.03;98728.13;7390213;19;19915;-78
2022/11/06 01:47:52;;;;;;;;;;;;;;;6.34;76.96;98727.06;7388626;19;19931;-78
2022/11/06 01:50:19;;;;;;;;;;;;;;;6.21;77.31;98733.38;7386094;19;19940;-78
2022/11/06 01:52:46;;;;;;;;;;;;;;;6.08;77.30;98721.22;7384972;19;19918;-77
2022/11/06 01:55:15;;;;;;;;;;;;;;;6.03;77.86;98725.13;7384364;19;19926;-78
2022/11/06 01:57:41;;;;;;;;;;;;;;;6.02;78.59;98716.44;7389316;19;20335;-78
2022/11/06 02:00:08;;;;;;;;;;;;;;;6.04;78.61;98719.78;7389797;19;19929;-77
2022/11/06 02:02:34;;;;;;;;;;;;;;;5.99;79.03;98711.41;7388479;19;19923;-77
2022/11/06 02:05:01;;;;;;;;;;;;;;;6.04;78.63;98711.06;7386943;19;19994;-77
2022/11/06 02:07:28;;;;;;;;;;;;;;;6.06;78.56;98707.38;7389779;19;19923;-78
2022/11/06 02:09:54;;;;;;;;;;;;;;;6.05;78.64;98707.47;7385758;19;19914;-78
2022/11/06 02:12:40;;;;;;;;;;;;;;;6.04;78.59;98716.31;7384471;19;19915;-78
2022/11/06 02:15:18;;;;;;;;;;;;;;;6.11;78.63;98707.03;7386965;19;19943;-78
2022/11/06 02:17:45;;;;;;;;;;;;;;;6.01;78.61;98716.56;7390188;19;19931;-78
2022/11/06 02:20:30;;;;;;;;;;;;;;;5.96;78.72;98713.47;7390472;19;19923;-78
2022/11/06 02:22:56;;;;;;;;;;;;;;;6.03;78.72;98707.63;7389290;19;20341;-78
2022/11/06 02:25:42;;;;;;;;;;;;;;;6.04;78.57;98695.31;7388741;19;20235;-76
2022/11/06 02:28:14;;;;;;;;;;;;;;;6.01;78.10;98696.38;7394388;19;19922;-77
2022/11/06 02:30:42;;;;;;;;;;;;;;;5.94;78.44;98690.75;7392029;19;19918;-77
2022/11/06 02:33:10;;;;;;;;;;;;;;;5.97;78.32;98683.59;7393324;19;19918;-77
2022/11/06 02:35:48;;;;;;;;;;;;;;;5.98;78.60;98678.25;7392811;19;20079;-77
2022/11/06 02:38:22;;;;;;;;;;;;;;;5.97;78.95;98681.81;7395007;19;19930;-77
2022/11/06 02:40:50;;;;;;;;;;;;;;;5.98;78.80;98670.38;7393307;19;19934;-77
2022/11/06 02:43:17;;;;;;;;;;;;;;;6.00;79.01;98673.69;7391801;19;20259;-76
2022/11/06 02:45:48;;;;;;;;;;;;;;;5.97;78.75;98676.56;7391838;19;19915;-77
2022/11/06 02:48:14;;;;;;;;;;;;;;;6.05;78.82;98665.47;7396007;19;19919;-77
2022/11/06 02:50:42;;;;;;;;;;;;;;;6.08;78.96;98660.81;7392458;19;20286;-77
2022/11/06 02:53:09;;;;;;;;;;;;;;;6.09;79.01;98661.66;7394581;19;19911;-78
2022/11/06 02:55:41;;;;;;;;;;;;;;;6.08;78.76;98655.56;7392630;19;19923;-78
2022/11/06 02:58:08;;;;;;;;;;;;;;;6.14;78.83;98652.44;7392078;19;19951;-78
2022/11/06 03:00:35;;;;;;;;;;;;;;;6.10;79.07;98640.50;7389569;19;19921;-77
2022/11/06 03:03:04;;;;;;;;;;;;;;;6.11;78.96;98633.47;7392832;19;19952;-76
2022/11/06 03:05:34;;;;;;;;;;;;;;;6.13;79.00;98632.41;7389609;19;19950;-77
2022/11/06 03:08:06;;;;;;;;;;;;;;;6.04;79.34;98627.03;7395899;19;20665;-76
2022/11/06 03:10:36;;;;;;;;;;;;;;;6.00;79.47;98630.84;7394745;19;19930;-77
2022/11/06 03:13:23;;;;;;;;;;;;;;;5.97;79.53;98626.66;7391150;19;19911;-77
2022/11/06 03:16:04;;;;;;;;;;;;;;;6.03;79.16;98630.59;7391175;19;19922;-75
2022/11/06 03:18:35;;;;;;;;;;;;;;;5.80;79.78;98627.13;7393333;19;19919;-76
2022/11/06 03:21:05;;;;;;;;;;;;;;;5.88;79.36;98622.94;7391984;19;19915;-76
2022/11/06 03:23:52;;;;;;;;;;;;;;;6.04;79.26;98619.16;7394053;19;19919;-78
2022/11/06 03:26:20;;;;;;;;;;;;;;;5.98;79.51;98614.34;7392072;19;19923;-77
2022/11/06 03:28:47;;;;;;;;;;;;;;;5.93;79.64;98614.72;7394850;19;19919;-78
2022/11/06 03:31:14;;;;;;;;;;;;;;;6.07;79.11;98622.34;7391344;19;19947;-78
2022/11/06 03:33:48;;;;;;;;;;;;;;;5.93;79.36;98617.34;7391914;19;21077;-78
2022/11/06 03:36:19;;;;;;;;;;;;;;;5.92;79.06;98618.28;7392856;19;19943;-79
2022/11/06 03:38:47;;;;;;;;;;;;;;;5.90;79.22;98620.22;7395104;19;19923;-78
2022/11/06 03:41:19;;;;;;;;;;;;;;;5.86;79.30;98616.97;7393308;19;19926;-76
2022/11/06 03:43:46;;;;;;;;;;;;;;;5.93;79.21;98612.94;7392025;19;19926;-77
2022/11/06 03:46:15;;;;;;;;;;;;;;;5.90;79.20;98617.59;7390519;19;19915;-77
2022/11/06 03:48:46;;;;;;;;;;;;;;;5.96;79.46;98613.66;7390641;19;19967;-77
2022/11/06 03:51:15;;;;;;;;;;;;;;;5.91;79.29;98608.72;7387415;19;20397;-77
2022/11/06 03:53:44;;;;;;;;;;;;;;;5.95;78.85;98607.59;7392532;19;19940;-77
2022/11/06 03:56:13;;;;;;;;;;;;;;;5.96;78.95;98590.03;7394110;19;19919;-78
2022/11/06 03:58:41;;;;;;;;;;;;;;;5.97;78.67;98589.88;7393381;19;19922;-78
2022/11/06 04:01:08;;;;;;;;;;;;;;;6.00;78.67;98594.91;7393941;19;19927;-78
2022/11/06 04:03:43;;;;;;;;;;;;;;;5.95;78.54;98589.19;7390759;19;19936;-78
2022/11/06 04:06:14;;;;;;;;;;;;;;;5.90;78.40;98584.28;7393141;19;19944;-78
2022/11/06 04:14:13;;;;;;;;;;;;;;;5.81;78.77;98586.78;7388422;19;22173;-78
2022/11/06 04:16:44;;;;;;;;;;;;;;;5.94;78.05;98579.63;7389700;19;20378;-77
2022/11/06 04:19:13;;;;;;;;;;;;;;;5.94;77.71;98577.84;7391723;19;19910;-77
2022/11/06 04:22:02;;;;;;;;;;;;;;;5.85;77.85;98575.91;7386417;19;20382;-78
2022/11/06 04:27:47;;;;;;;;;;;;;;;5.62;78.18;98569.84;7391999;19;19925;-78
2022/11/06 04:30:14;;;;;;;;;;;;;;;5.66;78.32;98573.91;7390876;19;19927;-77
2022/11/06 04:33:01;;;;;;;;;;;;;;;5.57;78.38;98569.38;7390548;19;19919;-78
2022/11/06 04:35:43;;;;;;;;;;;;;;;5.66;78.12;98566.03;7386048;19;19915;-78
2022/11/06 04:38:09;;;;;;;;;;;;;;;5.68;78.01;98555.41;7388148;19;19923;-78
2022/11/06 04:41:11;;;;;;;;;;;;;;;5.55;78.33;98557.31;7389225;19;19935;-78
2022/11/06 04:43:51;;;;;;;;;;;;;;;5.65;77.68;98550.41;7385650;19;19930;-78
2022/11/06 04:46:22;;;;;;;;;;;;;;;5.62;77.57;98534.88;7390960;19;19919;-78
2022/11/06 04:48:49;;;;;;;;;;;;;;;5.49;77.45;98538.47;7390753;19;20270;-78
2022/11/06 04:51:15;;;;;;;;;;;;;;;5.39;78.08;98534.88;7387936;19;19950;-78
2022/11/06 04:53:42;;;;;;;;;;;;;;;5.40;78.09;98533.13;7388744;19;19915;-78
2022/11/06 04:56:10;;;;;;;;;;;;;;;5.39;78.39;98528.81;7387503;19;19948;-78
2022/11/06 04:58:37;;;;;;;;;;;;;;;5.53;78.49;98532.97;7386865;19;19923;-78
2022/11/06 05:01:04;;;;;;;;;;;;;;;5.74;77.84;98528.69;7389102;19;19939;-77
2022/11/06 05:03:30;;;;;;;;;;;;;;;5.62;77.76;98525.22;7389279;19;20267;-78
2022/11/06 05:05:57;;;;;;;;;;;;;;;5.50;77.84;98519.16;7389112;19;20275;-78
2022/11/06 05:08:24;;;;;;;;;;;;;;;5.64;77.23;98515.44;7390433;19;19926;-78
2022/11/06 05:10:50;;;;;;;;;;;;;;;5.53;77.44;98518.09;7387188;19;19946;-77
2022/11/06 05:13:17;;;;;;;;;;;;;;;5.58;77.54;98539.56;7385204;19;19919;-78
2022/11/06 05:15:43;;;;;;;;;;;;;;;5.65;76.59;98548.59;7386954;19;20343;-78
2022/11/06 05:18:10;;;;;;;;;;;;;;;5.54;76.66;98550.41;7390297;19;19935;-78
2022/11/06 05:20:37;;;;;;;;;;;;;;;5.45;76.23;98557.19;7390155;19;19931;-78
2022/11/06 05:23:03;;;;;;;;;;;;;;;5.49;75.89;98562.09;7384328;19;20259;-77
2022/11/06 05:25:31;;;;;;;;;;;;;;;5.52;75.91;98561.00;7386932;19;19915;-76
2022/11/06 05:27:58;;;;;;;;;;;;;;;5.40;76.67;98561.97;7388840;19;19956;-77
2022/11/06 05:30:25;;;;;;;;;;;;;;;5.30;77.52;98558.41;7385422;19;20291;-77
2022/11/06 05:32:52;;;;;;;;;;;;;;;5.19;78.06;98559.22;7386150;19;19923;-78
2022/11/06 05:35:19;;;;;;;;;;;;;;;5.34;77.61;98562.44;7387100;19;19966;-78
2022/11/06 05:37:45;;;;;;;;;;;;;;;5.40;77.20;98567.22;7389513;19;19994;-78
2022/11/06 05:40:12;;;;;;;;;;;;;;;5.30;77.31;98579.38;7389143;19;19918;-78
2022/11/06 05:42:39;;;;;;;;;;;;;;;5.01;77.68;98579.81;7390513;19;19930;-76
2022/11/06 05:45:06;;;;;;;;;;;;;;;4.90;78.22;98567.50;7386231;19;19927;-77
2022/11/06 05:47:33;;;;;;;;;;;;;;;4.77;78.36;98557.09;7387554;19;20330;-77
2022/11/06 05:49:59;;;;;;;;;;;;;;;4.86;78.53;98550.31;7389688;19;19914;-78
2022/11/06 05:52:26;;;;;;;;;;;;;;;4.74;78.90;98545.97;7389879;19;19919;-78
2022/11/06 05:54:53;;;;;;;;;;;;;;;4.73;79.47;98549.56;7389271;19;19926;-78
2022/11/06 05:57:19;;;;;;;;;;;;;;;4.67;79.78;98552.66;7390244;19;19943;-78
2022/11/06 05:59:46;;;;;;;;;;;;;;;4.78;79.17;98550.06;7386389;19;19923;-78
2022/11/06 06:02:12;;;;;;;;;;;;;;;4.80;79.39;98535.88;7387835;19;19927;-78
2022/11/06 06:04:39;;;;;;;;;;;;;;;4.87;79.51;98538.03;7386940;19;19918;-77
2022/11/06 06:07:06;;;;;;;;;;;;;;;4.99;79.58;98550.22;7389524;19;19931;-77
2022/11/06 06:09:33;;;;;;;;;;;;;;;5.07;78.26;98574.09;7391292;19;19918;-77
2022/11/06 06:11:59;;;;;;;;;;;;;;;5.01;78.10;98559.66;7391317;19;19919;-78
2022/11/06 06:14:26;;;;;;;;;;;;;;;4.59;79.90;98558.47;7387259;19;19925;-79
2022/11/06 06:16:52;;;;;;;;;;;;;;;4.70;80.18;98571.59;7387267;19;20350;-77
2022/11/06 06:19:19;;;;;;;;;;;;;;;4.79;79.84;98570.06;7386477;19;19914;-77
2022/11/06 06:21:46;;;;;;;;;;;;;;;4.80;79.71;98562.09;7388118;19;19918;-77
2022/11/06 06:24:12;;;;;;;;;;;;;;;4.51;80.83;98559.03;7386281;19;19922;-78
2022/11/06 06:26:39;;;;;;;;;;;;;;;4.82;80.35;98577.72;7389237;19;19919;-78
2022/11/06 06:29:05;;;;;;;;;;;;;;;4.68;80.68;98572.66;7390277;19;19923;-77
2022/11/06 06:31:32;;;;;;;;;;;;;;;4.77;80.64;98561.50;7386559;19;19917;-78
2022/11/06 06:33:59;;;;;;;;;;;;;;;4.60;80.70;98563.56;7385637;19;20284;-77
2022/11/06 06:36:25;;;;;;;;;;;;;;;4.67;80.72;98566.59;7385022;19;19918;-78
2022/11/06 06:38:52;;;;;;;;;;;;;;;4.84;80.63;98563.56;7387946;19;19910;-79
2022/11/06 06:41:19;;;;;;;;;;;;;;;5.02;80.60;98552.63;7387367;19;19919;-78
2022/11/06 06:43:46;;;;;;;;;;;;;;;5.05;80.32;98537.50;7396060;19;19922;-78
2022/11/06 06:46:13;;;;;;;;;;;;;;;5.02;80.15;98531.63;7394742;19;20030;-78
2022/11/06 06:48:39;;;;;;;;;;;;;;;4.94;80.05;98549.75;7392570;19;19943;-78
2022/11/06 06:51:09;;;;;;;;;;;;;;;4.91;80.29;98553.44;7389034;19;19926;-78
2022/11/06 06:53:36;;;;;;;;;;;;;;;5.01;80.36;98553.56;7382404;19;19938;-78
2022/11/06 06:56:04;;;;;;;;;;;;;;;5.00;80.46;98544.03;7385830;19;19918;-77
2022/11/06 06:58:34;;;;;;;;;;;;;;;5.22;80.03;98543.25;7389345;19;19931;-78
2022/11/06 07:01:03;;;;;;;;;;;;;;;5.30;79.77;98532.16;7387619;19;19915;-78
2022/11/06 07:03:30;;;;;;;;;;;;;;;5.18;79.85;98526.88;7388637;19;19919;-78
2022/11/06 07:05:57;;;;;;;;;;;;;;;5.12;80.24;98527.38;7386230;19;19914;-77
2022/11/06 07:08:24;;;;;;;;;;;;;;;5.24;79.91;98515.13;7386923;19;19911;-77
2022/11/06 07:11:00;;;;;;;;;;;;;;;5.33;79.79;98516.19;7386351;19;19926;-76
2022/11/06 07:13:27;;;;;;;;;;;;;;;5.23;79.96;98500.31;7395929;19;19914;-77
2022/11/06 07:16:02;;;;;;;;;;;;;;;5.34;79.87;98496.84;7391370;19;19919;-78
2022/11/06 07:18:29;;;;;;;;;;;;;;;5.41;79.70;98490.19;7397173;19;21226;-78
2022/11/06 07:20:56;;;;;;;;;;;;;;;5.31;79.85;98497.09;7398302;19;19919;-77
2022/11/06 07:23:23;;;;;;;;;;;;;;;5.49;79.31;98490.41;7397895;19;19949;-76
2022/11/06 07:25:53;;;;;;;;;;;;;;;5.50;79.14;98479.81;7393303;19;20017;-78
2022/11/06 07:28:23;;;;;;;;;;;;;;;5.57;78.95;98481.94;7394420;19;19915;-77
2022/11/06 07:30:49;;;;;;;;;;;;;;;5.43;79.35;98475.97;7395125;19;19915;-78
2022/11/06 07:33:19;;;;;;;;;;;;;;;5.62;79.38;98472.72;7396662;19;20343;-76
2022/11/06 07:35:51;;;;;;;;;;;;;;;5.72;79.29;98467.59;7398840;19;19947;-77
2022/11/06 07:38:18;;;;;;;;;;;;;;;5.80;79.24;98462.56;7400360;19;19940;-78
2022/11/06 07:40:47;;;;;;;;;;;;;;;5.85;78.70;98460.41;7402388;19;19923;-75
2022/11/06 07:43:14;;;;;;;;;;;;;;;5.78;78.67;98458.38;7409721;19;19926;-77
2022/11/06 07:45:40;;;;;;;;;;;;;;;5.90;78.49;98452.97;7395411;19;19983;-77
2022/11/06 07:48:08;;;;;;;;;;;;;;;5.91;78.47;98445.94;7394913;19;19947;-78
2022/11/06 07:50:41;;;;;;;;;;;;;;;6.06;77.71;98438.63;7397213;19;19910;-78
2022/11/06 07:53:10;;;;;;;;;;;;;;;5.99;77.94;98429.59;7395809;19;19935;-78
2022/11/06 07:55:38;;;;;;;;;;;;;;;6.13;77.82;98427.50;7394879;19;19952;-78
2022/11/06 07:58:07;;;;;;;;;;;;;;;6.07;78.16;98424.53;7393797;19;19926;-78
2022/11/06 08:00:34;;;;;;;;;;;;;;;6.24;77.72;98417.88;7391307;19;20531;-78
2022/11/06 08:03:01;;;;;;;;;;;;;;;6.24;78.29;98402.13;7390247;19;20373;-79
2022/11/06 08:05:29;;;;;;;;;;;;;;;6.23;78.63;98390.78;7392881;19;19918;-78
2022/11/06 08:07:59;;;;;;;;;;;;;;;6.47;78.67;98381.81;7396671;19;19921;-79
2022/11/06 08:10:25;;;;;;;;;;;;;;;6.53;79.13;98392.66;7394371;19;19919;-78
2022/11/06 08:13:03;;;;;;;;;;;;;;;6.65;79.83;98393.38;7393651;19;19919;-78
2022/11/06 08:15:38;;;;;;;;;;;;;;;6.78;80.10;98377.41;7389855;19;19923;-78
2022/11/06 08:18:07;;;;;;;;;;;;;;;6.96;79.60;98378.44;7395500;19;19939;-78
2022/11/06 08:20:34;;;;;;;;;;;;;;;7.06;79.71;98372.38;7391403;19;19911;-79
2022/11/06 08:23:01;;;;;;;;;;;;;;;7.13;79.63;98373.50;7390947;19;19953;-78
2022/11/06 08:25:28;;;;;;;;;;;;;;;7.12;79.50;98366.59;7389103;19;20280;-77
2022/11/06 08:27:55;;;;;;;;;;;;;;;7.16;79.31;98374.09;7391737;19;19973;-77
2022/11/06 08:30:22;;;;;;;;;;;;;;;7.31;79.30;98371.91;7392216;19;20659;-77
2022/11/06 08:32:48;;;;;;;;;;;;;;;7.42;79.27;98377.03;7391167;19;20395;-77
2022/11/06 08:35:19;;;;;;;;;;;;;;;7.32;79.19;98381.47;7386965;19;20308;-77
2022/11/06 08:37:46;;;;;;;;;;;;;;;7.43;79.33;98388.44;7393537;19;19939;-78
2022/11/06 08:40:12;;;;;;;;;;;;;;;7.60;79.00;98387.75;7394778;19;19919;-77
2022/11/06 08:42:39;;;;;;;;;;;;;;;7.58;78.79;98389.72;7393235;19;19918;-78
2022/11/06 08:45:06;;;;;;;;;;;;;;;7.68;77.96;98384.44;7391291;19;19918;-79
2022/11/06 08:47:32;;;;;;;;;;;;;;;7.39;77.21;98390.47;7390266;19;20191;-79
2022/11/06 08:49:59;;;;;;;;;;;;;;;7.00;76.99;98398.28;7389589;19;19936;-77
2022/11/06 08:52:25;;;;;;;;;;;;;;;6.93;77.42;98391.03;7391943;19;19939;-78
2022/11/06 08:54:59;;;;;;;;;;;;;;;6.85;77.95;98370.66;7387966;19;20263;-76
2022/11/06 08:57:26;;;;;;;;;;;;;;;6.90;78.08;98371.09;7392015;19;20346;-77
2022/11/06 08:59:52;;;;;;;;;;;;;;;6.94;78.25;98359.34;7391114;19;19914;-76
2022/11/06 09:02:19;;;;;;;;;;;;;;;7.06;77.75;98361.84;7390869;19;20244;-77
2022/11/06 09:04:46;;;;;;;;;;;;;;;7.16;78.67;98367.97;7390366;19;19914;-77
2022/11/06 09:07:12;;;;;;;;;;;;;;;7.33;78.49;98372.59;7386780;19;20185;-77
2022/11/06 09:09:39;;;;;;;;;;;;;;;7.39;78.48;98369.41;7387980;19;19907;-77
2022/11/06 09:12:05;;;;;;;;;;;;;;;7.45;78.05;98373.31;7388622;19;19919;-77
2022/11/06 09:14:32;;;;;;;;;;;;;;;7.33;77.98;98375.25;7390054;19;19936;-78
2022/11/06 09:17:03;;;;;;;;;;;;;;;7.43;78.00;98365.56;7393745;19;19933;-78
2022/11/06 09:19:29;;;;;;;;;;;;;;;7.38;78.00;98366.94;7390535;19;19914;-78
2022/11/06 09:21:56;;;;;;;;;;;;;;;7.51;77.40;98357.00;7384912;19;20358;-78
2022/11/06 09:24:23;;;;;;;;;;;;;;;7.56;77.40;98367.13;7388411;19;20462;-77
2022/11/06 09:27:09;;;;;;;;;;;;;;;7.69;77.38;98367.69;7390704;19;19935;-78
2022/11/06 09:29:39;;;;;;;;;;;;;;;7.45;77.84;98378.56;7392210;19;19931;-78
2022/11/06 09:32:06;;;;;;;;;;;;;;;7.51;77.98;98393.00;7390429;19;19919;-78
2022/11/06 09:34:33;;;;;;;;;;;;;;;7.47;78.02;98413.50;7389564;19;20411;-78
2022/11/06 09:37:00;;;;;;;;;;;;;;;7.42;78.22;98411.25;7389443;19;19943;-78
2022/11/06 09:39:27;;;;;;;;;;;;;;;7.28;78.34;98410.81;7391218;19;20346;-79
2022/11/06 09:41:57;;;;;;;;;;;;;;;7.56;78.22;98407.44;7391478;19;19954;-77
2022/11/06 09:44:43;;;;;;;;;;;;;;;7.76;78.04;98397.75;7391452;19;19915;-78
2022/11/06 09:47:13;;;;;;;;;;;;;;;7.86;77.72;98382.78;7391155;19;19935;-78
2022/11/06 09:49:49;;;;;;;;;;;;;;;7.78;77.78;98379.19;7389609;19;19990;-78
2022/11/06 09:52:25;;;;;;;;;;;;;;;7.85;77.21;98370.59;7387611;19;19914;-80
2022/11/06 09:54:55;;;;;;;;;;;;;;;7.99;77.32;98371.16;7388921;19;19923;-79
2022/11/06 09:57:42;;;;;;;;;;;;;;;8.00;77.22;98364.88;7389623;19;19915;-79
2022/11/06 10:00:13;;;;;;;;;;;;;;;7.98;77.19;98358.91;7387895;19;19944;-78
2022/11/06 10:02:40;;;;;;;;;;;;;;;8.14;77.07;98346.03;7389306;19;19919;-79
2022/11/06 10:05:13;;;;;;;;;;;;;;;8.33;77.02;98345.16;7384301;19;19947;-78
2022/11/06 10:07:40;;;;;;;;;;;;;;;8.32;76.53;98346.97;7389453;19;20723;-79
2022/11/06 10:10:07;;;;;;;;;;;;;;;8.38;76.52;98331.56;7391169;19;19930;-78
2022/11/06 10:12:41;;;;;;;;;;;;;;;8.64;76.64;98329.97;7387533;19;19914;-80
2022/11/06 10:15:07;;;;;;;;;;;;;;;8.77;76.04;98343.66;7383280;19;20628;-79
2022/11/06 10:17:38;;;;;;;;;;;;;;;8.70;75.39;98331.22;7390715;19;20262;-79
2022/11/06 10:20:05;;;;;;;;;;;;;;;8.84;74.70;98328.06;7390611;19;19923;-77
2022/11/06 10:22:41;;;;;;;;;;;;;;;8.82;75.15;98313.38;7393708;19;19919;-79
2022/11/06 10:25:21;;;;;;;;;;;;;;;8.77;75.16;98311.19;7388565;19;19923;-81
2022/11/06 10:27:54;;;;;;;;;;;;;;;8.95;75.98;98305.94;7389497;19;20341;-78
2022/11/06 10:30:21;;;;;;;;;;;;;;;9.09;75.45;98300.19;7389657;19;19952;-78
2022/11/06 10:32:48;;;;;;;;;;;;;;;9.17;75.27;98297.63;7385738;19;19947;-79
2022/11/06 10:35:16;;;;;;;;;;;;;;;9.25;75.69;98280.22;7388349;19;19922;-78
2022/11/06 10:37:45;;;;;;;;;;;;;;;9.54;76.61;98278.19;7388956;19;20327;-78
2022/11/06 10:40:19;;;;;;;;;;;;;;;9.79;75.95;98278.41;7386374;19;19947;-79
2022/11/06 10:42:47;;;;;;;;;;;;;;;9.94;75.57;98268.13;7384872;19;19927;-78
2022/11/06 10:45:14;;;;;;;;;;;;;;;10.05;76.02;98257.28;7383016;19;19919;-79
2022/11/06 10:47:42;;;;;;;;;;;;;;;10.11;75.01;98252.22;7391390;19;20385;-79
2022/11/06 10:50:13;;;;;;;;;;;;;;;10.12;75.40;98253.03;7386839;19;19923;-79
2022/11/06 10:52:41;;;;;;;;;;;;;;;10.21;73.37;98249.44;7391339;19;20504;-80
2022/11/06 10:55:17;;;;;;;;;;;;;;;10.32;73.39;98243.94;7391481;19;20280;-80
2022/11/06 10:57:45;;;;;;;;;;;;;;;10.45;73.22;98232.94;7393915;19;19915;-79
2022/11/06 11:00:14;;;;;;;;;;;;;;;10.58;72.57;98236.94;7394444;19;19943;-80
2022/11/06 11:02:44;;;;;;;;;;;;;;;10.57;72.85;98235.28;7394482;19;19922;-79
2022/11/06 11:05:15;;;;;;;;;;;;;;;10.50;73.21;98227.16;7389688;19;20351;-79
2022/11/06 11:07:43;;;;;;;;;;;;;;;10.66;73.77;98213.97;7394077;19;19922;-79
2022/11/06 11:10:25;;;;;;;;;;;;;;;10.81;73.69;98200.16;7393236;19;19955;-80
2022/11/06 11:12:53;;;;;;;;;;;;;;;10.78;72.99;98201.28;7394863;19;20493;-79
2022/11/06 11:15:23;;;;;;;;;;;;;;;10.88;72.87;98188.75;7393438;19;19948;-80
2022/11/06 11:18:10;;;;;;;;;;;;;;;11.04;72.96;98184.50;7395991;19;20245;-79
2022/11/06 11:20:38;;;;;;;;;;;;;;;11.12;72.76;98166.78;7390400;19;19935;-79
2022/11/06 11:23:16;;;;;;;;;;;;;;;11.13;73.07;98157.00;7387719;19;19951;-79
2022/11/06 11:25:43;;;;;;;;;;;;;;;11.07;72.84;98139.16;7390507;19;19915;-79
2022/11/06 11:28:20;;;;;;;;;;;;;;;11.17;73.17;98135.34;7389736;19;19915;-79
2022/11/06 11:30:51;;;;;;;;;;;;;;;11.32;72.72;98130.22;7389128;19;19915;-79
2022/11/06 11:33:18;;;;;;;;;;;;;;;11.26;72.61;98125.56;7393240;19;20331;-78
2022/11/06 11:35:46;;;;;;;;;;;;;;;11.30;72.64;98116.31;7389322;19;19943;-79
2022/11/06 11:38:13;;;;;;;;;;;;;;;11.26;71.92;98128.22;7391636;19;19919;-80
2022/11/06 11:40:41;;;;;;;;;;;;;;;11.09;71.61;98116.00;7395417;19;19943;-77
2022/11/06 11:43:27;;;;;;;;;;;;;;;11.23;71.60;98112.66;7405337;19;19923;-79
2022/11/06 11:46:08;;;;;;;;;;;;;;;11.33;71.86;98105.38;7398574;19;19930;-80
2022/11/06 11:48:42;;;;;;;;;;;;;;;11.40;71.23;98109.03;7395416;19;19947;-80
2022/11/06 11:51:11;;;;;;;;;;;;;;;11.48;71.20;98107.34;7396670;19;19919;-79
2022/11/06 11:53:38;;;;;;;;;;;;;;;11.59;71.16;98099.88;7392308;19;19923;-78
2022/11/06 11:56:05;;;;;;;;;;;;;;;11.50;70.67;98081.50;7391013;19;19923;-79
2022/11/06 11:58:31;;;;;;;;;;;;;;;11.27;70.13;98076.06;7388754;19;19922;-79
2022/11/06 12:00:58;;;;;;;;;;;;;;;11.28;71.13;98067.16;7391906;19;20372;-79
2022/11/06 12:03:30;;;;;;;;;;;;;;;11.39;71.24;98059.69;7394325;19;19976;-80
2022/11/06 12:06:07;;;;;;;;;;;;;;;11.36;70.81;98065.31;7393256;19;19923;-79
2022/11/06 12:08:33;;;;;;;;;;;;;;;11.33;70.43;98052.41;7388289;19;20339;-80
2022/11/06 12:11:03;;;;;;;;;;;;;;;11.31;69.08;98054.41;7389343;19;19955;-80
2022/11/06 12:13:30;;;;;;;;;;;;;;;11.23;69.51;98046.47;7391746;19;19974;-80
2022/11/06 12:15:56;;;;;;;;;;;;;;;11.27;68.88;98047.81;7392384;19;19918;-79
2022/11/06 12:18:38;;;;;;;;;;;;;;;11.37;69.91;98048.44;7395294;19;19919;-80
2022/11/06 12:21:04;;;;;;;;;;;;;;;11.42;70.00;98051.38;7393468;19;19923;-79
2022/11/06 12:23:34;;;;;;;;;;;;;;;11.30;70.14;98042.16;7390913;19;19915;-78
2022/11/06 12:26:23;;;;;;;;;;;;;;;11.30;69.04;98039.50;7387014;19;19930;-79
2022/11/06 12:28:50;;;;;;;;;;;;;;;11.26;68.62;98040.84;7387825;19;19919;-79
2022/11/06 12:31:18;;;;;;;;;;;;;;;11.11;68.99;98037.22;7388682;19;19923;-80
2022/11/06 12:33:45;;;;;;;;;;;;;;;11.11;69.27;98042.50;7383735;19;19934;-80
2022/11/06 12:36:38;;;;;;;;;;;;;;;11.15;67.05;98035.88;7380955;19;19982;-79
2022/11/06 12:39:05;;;;;;;;;;;;;;;11.09;68.84;98028.63;7393328;19;20355;-79
2022/11/06 12:41:36;;;;;;;;;;;;;;;11.17;68.21;98032.09;7374926;19;19938;-80
2022/11/06 12:44:03;;;;;;;;;;;;;;;11.12;69.08;98034.41;7369401;19;20569;-79
2022/11/06 12:46:48;;;;;;;;;;;;;;;11.12;68.45;98015.88;7371804;19;19923;-80
2022/11/06 12:49:24;;;;;;;;;;;;;;;11.13;68.83;98016.69;7373551;19;19915;-78
2022/11/06 12:52:03;;;;;;;;;;;;;;;11.10;68.78;98012.56;7361743;19;19979;-78
2022/11/06 12:54:36;;;;;;;;;;;;;;;11.00;68.48;98014.56;7365265;19;19918;-79
2022/11/06 12:57:19;;;;;;;;;;;;;;;10.89;67.72;98006.97;7349156;19;19919;-80
2022/11/06 13:00:02;;;;;;;;;;;;;;;10.99;69.24;98007.63;7359372;19;19915;-81
2022/11/06 13:02:29;;;;;;;;;;;;;;;10.96;68.86;97992.91;7360706;19;19919;-78
2022/11/06 13:05:14;;;;;;;;;;;;;;;10.98;69.18;97988.28;7355004;19;19921;-79
2022/11/06 13:07:41;;;;;;;;;;;;;;;10.95;69.72;97988.63;7337013;19;19919;-75
2022/11/06 13:10:08;;;;;;;;;;;;;;;10.84;69.67;97994.22;7338398;19;20400;-78
2022/11/06 13:12:40;;;;;;;;;;;;;;;10.95;69.79;97995.69;7344984;19;19911;-78
2022/11/06 13:15:16;;;;;;;;;;;;;;;11.05;69.19;97984.94;7338379;19;19918;-76
2022/11/06 13:17:51;;;;;;;;;;;;;;;11.13;69.72;97976.97;7341549;19;19922;-78